sensor_id;sensor_type;location;lat;lon;timestamp;pressure;altitude;pressure_sealevel;temperature;humidity
15229;BME280;7717;47.792;12.076;2022-12-20T00:01:27;96956.66;;;-3.02;100.00
15229;BME280;7717;47.792;12.076;2022-12-20T00:03:54;96950.03;;;-2.86;100.00
15229;BME280;7717;47.792;12.076;2022-12-20T00:06:21;96948.81;;;-2.65;100.00
15229;BME280;7717;47.792;12.076;2022-12-20T00:08:52;96952.97;;;-2.94;100.00
15229;BME280;7717;47.792;12.076;2022-12-20T00:11:18;96948.59;;;-2.83;100.00
15229;BME280;7717;47.792;12.076;2022-12-20T00:13:45;96945.84;;;-2.73;100.00
15229;BME280;7717;47.792;12.076;2022-12-20T00:18:38;96945.19;;;-2.70;100.00
15229;BME280;7717;47.792;12.076;2022-12-20T00:21:06;96952.69;;;-2.70;100.00
15229;BME280;7717;47.792;12.076;2022-12-20T00:23:32;96951.97;;;-2.82;100.00
15229;BME280;7717;47.792;12.076;2022-12-20T00:26:09;96951.72;;;-2.72;100.00
15229;BME280;7717;47.792;12.076;2022-12-20T00:28:35;96953.09;;;-2.77;100.00
15229;BME280;7717;47.792;12.076;2022-12-20T00:31:01;96956.16;;;-2.68;100.00
15229;BME280;7717;47.792;12.076;2022-12-20T00:33:27;96954.00;;;-2.62;100.00
15229;BME280;7717;47.792;12.076;2022-12-20T00:35:54;96951.41;;;-2.63;100.00
15229;BME280;7717;47.792;12.076;2022-12-20T00:38:21;96945.38;;;-2.67;100.00
15229;BME280;7717;47.792;12.076;2022-12-20T00:40:46;96948.09;;;-2.77;100.00
15229;BME280;7717;47.792;12.076;2022-12-20T00:43:12;96942.03;;;-2.81;100.00
15229;BME280;7717;47.792;12.076;2022-12-20T00:45:37;96934.44;;;-2.82;100.00
15229;BME280;7717;47.792;12.076;2022-12-20T00:48:03;96938.34;;;-2.73;100.00
15229;BME280;7717;47.792;12.076;2022-12-20T00:50:29;96936.88;;;-2.69;100.00
15229;BME280;7717;47.792;12.076;2022-12-20T00:52:54;96922.84;;;-2.80;100.00
15229;BME280;7717;47.792;12.076;2022-12-20T00:55:19;96934.97;;;-2.73;100.00
15229;BME280;7717;47.792;12.076;2022-12-20T00:57:45;96931.59;;;-2.74;100.00
15229;BME280;7717;47.792;12.076;2022-12-20T01:00:10;96931.13;;;-2.81;100.00
15229;BME280;7717;47.792;12.076;2022-12-20T01:02:36;96946.25;;;-2.80;100.00
15229;BME280;7717;47.792;12.076;2022-12-20T01:05:01;96944.47;;;-2.82;100.00
15229;BME280;7717;47.792;12.076;2022-12-20T01:07:27;96938.56;;;-2.83;100.00
15229;BME280;7717;47.792;12.076;2022-12-20T01:09:52;96941.34;;;-2.78;100.00
15229;BME280;7717;47.792;12.076;2022-12-20T01:12:18;96937.50;;;-2.73;100.00
15229;BME280;7717;47.792;12.076;2022-12-20T01:14:43;96943.34;;;-2.73;100.00
15229;BME280;7717;47.792;12.076;2022-12-20T01:17:08;96951.91;;;-2.69;100.00
15229;BME280;7717;47.792;12.076;2022-12-20T01:19:34;96943.63;;;-2.68;100.00
15229;BME280;7717;47.792;12.076;2022-12-20T01:22:00;96945.91;;;-2.58;100.00
15229;BME280;7717;47.792;12.076;2022-12-20T01:24:25;96943.84;;;-2.50;100.00
15229;BME280;7717;47.792;12.076;2022-12-20T01:26:50;96950.38;;;-2.52;100.00
15229;BME280;7717;47.792;12.076;2022-12-20T01:29:16;96952.31;;;-2.48;100.00
15229;BME280;7717;47.792;12.076;2022-12-20T01:31:42;96951.72;;;-2.44;100.00
15229;BME280;7717;47.792;12.076;2022-12-20T01:34:08;96959.16;;;-2.45;100.00
15229;BME280;7717;47.792;12.076;2022-12-20T01:36:35;96952.31;;;-2.48;100.00
15229;BME280;7717;47.792;12.076;2022-12-20T01:39:10;96943.13;;;-2.62;100.00
15229;BME280;7717;47.792;12.076;2022-12-20T01:41:37;96942.34;;;-2.61;100.00
15229;BME280;7717;47.792;12.076;2022-12-20T01:46:51;96927.22;;;-2.63;100.00
15229;BME280;7717;47.792;12.076;2022-12-20T01:49:39;96931.72;;;-2.57;100.00
15229;BME280;7717;47.792;12.076;2022-12-20T01:54:51;96928.81;;;-2.50;100.00
15229;BME280;7717;47.792;12.076;2022-12-20T01:57:41;96917.53;;;-2.57;100.00
15229;BME280;7717;47.792;12.076;2022-12-20T02:00:08;96921.03;;;-2.55;100.00
15229;BME280;7717;47.792;12.076;2022-12-20T02:02:34;96921.03;;;-2.55;100.00
15229;BME280;7717;47.792;12.076;2022-12-20T02:05:00;96913.16;;;-2.46;100.00
15229;BME280;7717;47.792;12.076;2022-12-20T02:07:28;96911.75;;;-2.41;100.00
15229;BME280;7717;47.792;12.076;2022-12-20T02:09:56;96915.25;;;-2.39;100.00
15229;BME280;7717;47.792;12.076;2022-12-20T02:12:24;96913.41;;;-2.41;100.00
15229;BME280;7717;47.792;12.076;2022-12-20T02:18:00;96887.25;;;-2.90;100.00
15229;BME280;7717;47.792;12.076;2022-12-20T02:28:48;96896.81;;;-2.54;100.00
15229;BME280;7717;47.792;12.076;2022-12-20T02:31:20;96895.88;;;-2.56;100.00
15229;BME280;7717;47.792;12.076;2022-12-20T02:33:51;96899.59;;;-2.49;100.00
15229;BME280;7717;47.792;12.076;2022-12-20T02:36:17;96896.19;;;-2.65;100.00
15229;BME280;7717;47.792;12.076;2022-12-20T02:38:43;96891.72;;;-2.56;100.00
15229;BME280;7717;47.792;12.076;2022-12-20T02:41:18;96884.09;;;-2.57;100.00
15229;BME280;7717;47.792;12.076;2022-12-20T02:43:48;96888.59;;;-2.66;100.00
15229;BME280;7717;47.792;12.076;2022-12-20T02:46:35;96885.47;;;-2.77;100.00
15229;BME280;7717;47.792;12.076;2022-12-20T02:49:08;96894.09;;;-2.72;100.00
15229;BME280;7717;47.792;12.076;2022-12-20T02:51:36;96888.59;;;-2.66;100.00
15229;BME280;7717;47.792;12.076;2022-12-20T02:54:03;96891.22;;;-2.78;100.00
15229;BME280;7717;47.792;12.076;2022-12-20T02:56:42;96890.03;;;-2.85;100.00
15229;BME280;7717;47.792;12.076;2022-12-20T02:59:15;96892.25;;;-2.90;100.00
15229;BME280;7717;47.792;12.076;2022-12-20T03:01:51;96888.03;;;-2.91;100.00
15229;BME280;7717;47.792;12.076;2022-12-20T03:04:19;96892.88;;;-2.79;100.00
15229;BME280;7717;47.792;12.076;2022-12-20T03:07:17;96888.81;;;-2.77;100.00
15229;BME280;7717;47.792;12.076;2022-12-20T03:09:44;96895.75;;;-2.87;100.00
15229;BME280;7717;47.792;12.076;2022-12-20T03:12:11;96896.69;;;-2.85;100.00
15229;BME280;7717;47.792;12.076;2022-12-20T03:14:38;96900.56;;;-2.91;100.00
15229;BME280;7717;47.792;12.076;2022-12-20T03:17:04;96890.06;;;-2.70;100.00
15229;BME280;7717;47.792;12.076;2022-12-20T03:19:30;96890.66;;;-2.74;100.00
15229;BME280;7717;47.792;12.076;2022-12-20T03:21:56;96882.88;;;-2.79;100.00
15229;BME280;7717;47.792;12.076;2022-12-20T03:24:22;96891.31;;;-2.77;100.00
15229;BME280;7717;47.792;12.076;2022-12-20T03:26:50;96881.84;;;-2.82;100.00
15229;BME280;7717;47.792;12.076;2022-12-20T03:29:15;96885.53;;;-2.91;100.00
15229;BME280;7717;47.792;12.076;2022-12-20T03:31:40;96868.78;;;-2.92;100.00
15229;BME280;7717;47.792;12.076;2022-12-20T03:34:06;96863.00;;;-2.91;100.00
15229;BME280;7717;47.792;12.076;2022-12-20T03:36:32;96859.09;;;-2.85;100.00
15229;BME280;7717;47.792;12.076;2022-12-20T03:38:57;96864.13;;;-2.85;100.00
15229;BME280;7717;47.792;12.076;2022-12-20T03:41:23;96868.09;;;-2.89;100.00
15229;BME280;7717;47.792;12.076;2022-12-20T03:43:49;96872.22;;;-3.04;100.00
15229;BME280;7717;47.792;12.076;2022-12-20T03:46:15;96887.31;;;-3.03;100.00
15229;BME280;7717;47.792;12.076;2022-12-20T03:48:40;96888.44;;;-2.98;100.00
15229;BME280;7717;47.792;12.076;2022-12-20T03:51:06;96886.44;;;-3.03;100.00
15229;BME280;7717;47.792;12.076;2022-12-20T03:53:31;96885.75;;;-3.01;100.00
15229;BME280;7717;47.792;12.076;2022-12-20T03:55:57;96896.00;;;-3.11;100.00
15229;BME280;7717;47.792;12.076;2022-12-20T03:58:23;96902.75;;;-3.10;100.00
15229;BME280;7717;47.792;12.076;2022-12-20T04:00:48;96882.50;;;-3.00;100.00
15229;BME280;7717;47.792;12.076;2022-12-20T04:03:14;96878.06;;;-3.04;100.00
15229;BME280;7717;47.792;12.076;2022-12-20T04:05:39;96884.09;;;-3.00;100.00
15229;BME280;7717;47.792;12.076;2022-12-20T04:08:05;96884.09;;;-3.15;100.00
15229;BME280;7717;47.792;12.076;2022-12-20T04:10:30;96886.97;;;-3.09;100.00
15229;BME280;7717;47.792;12.076;2022-12-20T04:12:55;96876.13;;;-3.23;100.00
15229;BME280;7717;47.792;12.076;2022-12-20T04:15:21;96851.22;;;-3.35;100.00
15229;BME280;7717;47.792;12.076;2022-12-20T04:17:46;96867.50;;;-3.13;100.00
15229;BME280;7717;47.792;12.076;2022-12-20T04:20:16;96860.75;;;-3.14;100.00
15229;BME280;7717;47.792;12.076;2022-12-20T04:22:48;96851.38;;;-3.03;100.00
15229;BME280;7717;47.792;12.076;2022-12-20T04:25:16;96838.22;;;-3.14;100.00
15229;BME280;7717;47.792;12.076;2022-12-20T04:27:42;96835.81;;;-3.13;100.00
15229;BME280;7717;47.792;12.076;2022-12-20T04:30:08;96845.72;;;-3.14;100.00
15229;BME280;7717;47.792;12.076;2022-12-20T04:32:33;96841.44;;;-3.17;100.00
15229;BME280;7717;47.792;12.076;2022-12-20T04:34:59;96833.22;;;-3.14;100.00
15229;BME280;7717;47.792;12.076;2022-12-20T04:37:24;96845.56;;;-3.17;100.00
15229;BME280;7717;47.792;12.076;2022-12-20T04:39:50;96848.50;;;-3.24;100.00
15229;BME280;7717;47.792;12.076;2022-12-20T04:42:15;96852.13;;;-3.19;100.00
15229;BME280;7717;47.792;12.076;2022-12-20T04:44:41;96848.69;;;-3.07;100.00
15229;BME280;7717;47.792;12.076;2022-12-20T04:47:06;96859.28;;;-2.82;100.00
15229;BME280;7717;47.792;12.076;2022-12-20T04:49:31;96861.53;;;-2.87;100.00
15229;BME280;7717;47.792;12.076;2022-12-20T04:51:57;96856.34;;;-2.75;100.00
15229;BME280;7717;47.792;12.076;2022-12-20T04:54:42;96860.50;;;-2.76;100.00
15229;BME280;7717;47.792;12.076;2022-12-20T04:57:07;96864.22;;;-2.54;100.00
15229;BME280;7717;47.792;12.076;2022-12-20T04:59:34;96858.69;;;-2.33;100.00
15229;BME280;7717;47.792;12.076;2022-12-20T05:01:59;96858.06;;;-2.14;100.00
15229;BME280;7717;47.792;12.076;2022-12-20T05:04:25;96856.38;;;-2.15;100.00
15229;BME280;7717;47.792;12.076;2022-12-20T05:06:50;96853.69;;;-2.19;100.00
15229;BME280;7717;47.792;12.076;2022-12-20T05:09:15;96859.31;;;-2.23;100.00
15229;BME280;7717;47.792;12.076;2022-12-20T05:11:41;96854.19;;;-2.24;100.00
15229;BME280;7717;47.792;12.076;2022-12-20T05:14:06;96857.81;;;-2.19;100.00
15229;BME280;7717;47.792;12.076;2022-12-20T05:16:32;96814.72;;;-2.43;100.00
15229;BME280;7717;47.792;12.076;2022-12-20T05:18:57;96839.66;;;-2.30;100.00
15229;BME280;7717;47.792;12.076;2022-12-20T05:21:22;96845.53;;;-2.14;100.00
15229;BME280;7717;47.792;12.076;2022-12-20T05:24:08;96838.91;;;-2.29;100.00
15229;BME280;7717;47.792;12.076;2022-12-20T05:26:52;96780.84;;;-2.51;100.00
15229;BME280;7717;47.792;12.076;2022-12-20T05:29:18;96810.72;;;-2.25;100.00
15229;BME280;7717;47.792;12.076;2022-12-20T05:31:43;96796.09;;;-2.32;100.00
15229;BME280;7717;47.792;12.076;2022-12-20T05:34:08;96812.59;;;-2.21;100.00
15229;BME280;7717;47.792;12.076;2022-12-20T05:36:34;96805.06;;;-2.21;100.00
15229;BME280;7717;47.792;12.076;2022-12-20T05:38:59;96794.63;;;-2.28;100.00
15229;BME280;7717;47.792;12.076;2022-12-20T05:41:25;96801.38;;;-2.27;100.00
15229;BME280;7717;47.792;12.076;2022-12-20T05:43:50;96803.28;;;-2.38;100.00
15229;BME280;7717;47.792;12.076;2022-12-20T05:46:16;96798.63;;;-2.32;100.00
15229;BME280;7717;47.792;12.076;2022-12-20T05:48:41;96802.84;;;-2.31;100.00
15229;BME280;7717;47.792;12.076;2022-12-20T05:51:06;96790.50;;;-2.28;100.00
15229;BME280;7717;47.792;12.076;2022-12-20T05:53:32;96791.00;;;-2.33;100.00
15229;BME280;7717;47.792;12.076;2022-12-20T05:55:59;96788.25;;;-2.38;100.00
15229;BME280;7717;47.792;12.076;2022-12-20T05:58:25;96771.56;;;-2.38;100.00
15229;BME280;7717;47.792;12.076;2022-12-20T06:00:51;96792.75;;;-2.32;100.00
15229;BME280;7717;47.792;12.076;2022-12-20T06:03:16;96792.69;;;-2.18;100.00
15229;BME280;7717;47.792;12.076;2022-12-20T06:05:43;96786.16;;;-2.15;100.00
15229;BME280;7717;47.792;12.076;2022-12-20T06:08:09;96802.72;;;-2.03;100.00
15229;BME280;7717;47.792;12.076;2022-12-20T06:10:35;96797.13;;;-2.13;100.00
15229;BME280;7717;47.792;12.076;2022-12-20T06:13:02;96807.31;;;-2.10;100.00
15229;BME280;7717;47.792;12.076;2022-12-20T06:15:28;96799.34;;;-2.03;100.00
15229;BME280;7717;47.792;12.076;2022-12-20T06:17:53;96797.47;;;-1.91;100.00
15229;BME280;7717;47.792;12.076;2022-12-20T06:20:18;96793.75;;;-1.83;100.00
15229;BME280;7717;47.792;12.076;2022-12-20T06:22:44;96773.28;;;-1.74;100.00
15229;BME280;7717;47.792;12.076;2022-12-20T06:25:09;96774.31;;;-1.54;100.00
15229;BME280;7717;47.792;12.076;2022-12-20T06:27:36;96771.28;;;-1.48;100.00
15229;BME280;7717;47.792;12.076;2022-12-20T06:30:05;96749.16;;;-1.72;100.00
15229;BME280;7717;47.792;12.076;2022-12-20T06:32:31;96773.31;;;-1.57;100.00
15229;BME280;7717;47.792;12.076;2022-12-20T06:34:56;96776.50;;;-1.60;100.00
15229;BME280;7717;47.792;12.076;2022-12-20T06:37:21;96762.31;;;-1.59;100.00
15229;BME280;7717;47.792;12.076;2022-12-20T06:39:47;96778.31;;;-1.57;100.00
15229;BME280;7717;47.792;12.076;2022-12-20T06:42:12;96776.06;;;-1.53;100.00
15229;BME280;7717;47.792;12.076;2022-12-20T06:44:38;96761.38;;;-1.61;100.00
15229;BME280;7717;47.792;12.076;2022-12-20T06:47:03;96763.41;;;-1.54;100.00
15229;BME280;7717;47.792;12.076;2022-12-20T06:49:28;96765.94;;;-1.54;100.00
15229;BME280;7717;47.792;12.076;2022-12-20T06:51:54;96769.13;;;-1.57;100.00
15229;BME280;7717;47.792;12.076;2022-12-20T06:54:20;96780.03;;;-1.56;100.00
15229;BME280;7717;47.792;12.076;2022-12-20T06:56:45;96769.91;;;-1.58;100.00
15229;BME280;7717;47.792;12.076;2022-12-20T06:59:11;96763.41;;;-1.54;100.00
15229;BME280;7717;47.792;12.076;2022-12-20T07:01:36;96768.03;;;-1.46;100.00
15229;BME280;7717;47.792;12.076;2022-12-20T07:04:02;96763.75;;;-1.48;100.00
15229;BME280;7717;47.792;12.076;2022-12-20T07:06:27;96752.66;;;-1.52;100.00
15229;BME280;7717;47.792;12.076;2022-12-20T07:08:54;96745.44;;;-1.29;100.00
15229;BME280;7717;47.792;12.076;2022-12-20T07:11:19;96749.56;;;-0.97;100.00
15229;BME280;7717;47.792;12.076;2022-12-20T07:13:44;96744.84;;;-0.73;100.00
15229;BME280;7717;47.792;12.076;2022-12-20T07:16:09;96740.97;;;-0.84;100.00
15229;BME280;7717;47.792;12.076;2022-12-20T07:18:35;96735.94;;;-0.66;100.00
15229;BME280;7717;47.792;12.076;2022-12-20T07:21:03;96746.13;;;-0.63;100.00
15229;BME280;7717;47.792;12.076;2022-12-20T07:23:28;96749.81;;;-0.56;100.00
15229;BME280;7717;47.792;12.076;2022-12-20T07:25:55;96753.13;;;-0.57;100.00
15229;BME280;7717;47.792;12.076;2022-12-20T07:28:22;96743.56;;;-0.46;100.00
15229;BME280;7717;47.792;12.076;2022-12-20T07:30:47;96750.19;;;-0.30;100.00
15229;BME280;7717;47.792;12.076;2022-12-20T07:33:13;96743.38;;;0.05;100.00
15229;BME280;7717;47.792;12.076;2022-12-20T07:35:38;96737.47;;;0.04;100.00
15229;BME280;7717;47.792;12.076;2022-12-20T07:38:04;96732.84;;;-0.24;100.00
15229;BME280;7717;47.792;12.076;2022-12-20T07:40:30;96731.50;;;-0.53;100.00
15229;BME280;7717;47.792;12.076;2022-12-20T07:42:55;96729.63;;;-0.58;100.00
15229;BME280;7717;47.792;12.076;2022-12-20T07:45:20;96728.56;;;-0.45;100.00
15229;BME280;7717;47.792;12.076;2022-12-20T07:47:46;96730.50;;;-0.57;100.00
15229;BME280;7717;47.792;12.076;2022-12-20T07:50:11;96732.59;;;-0.48;100.00
15229;BME280;7717;47.792;12.076;2022-12-20T07:52:37;96736.53;;;-0.53;100.00
15229;BME280;7717;47.792;12.076;2022-12-20T07:55:09;96741.00;;;-0.48;100.00
15229;BME280;7717;47.792;12.076;2022-12-20T07:57:42;96744.94;;;-0.53;100.00
15229;BME280;7717;47.792;12.076;2022-12-20T08:00:09;96744.81;;;-0.56;100.00
15229;BME280;7717;47.792;12.076;2022-12-20T08:02:39;96746.66;;;-0.70;100.00
15229;BME280;7717;47.792;12.076;2022-12-20T08:05:07;96748.44;;;-0.67;100.00
15229;BME280;7717;47.792;12.076;2022-12-20T08:07:35;96762.03;;;-0.46;100.00
15229;BME280;7717;47.792;12.076;2022-12-20T08:10:01;96756.34;;;-0.60;100.00
15229;BME280;7717;47.792;12.076;2022-12-20T08:12:28;96758.50;;;-0.49;100.00
15229;BME280;7717;47.792;12.076;2022-12-20T08:14:54;96760.88;;;-0.34;100.00
15229;BME280;7717;47.792;12.076;2022-12-20T08:17:21;96749.56;;;-0.07;100.00
15229;BME280;7717;47.792;12.076;2022-12-20T08:19:46;96760.09;;;-0.15;100.00
15229;BME280;7717;47.792;12.076;2022-12-20T08:22:13;96755.88;;;0.03;100.00
15229;BME280;7717;47.792;12.076;2022-12-20T08:24:38;96760.13;;;0.42;100.00
15229;BME280;7717;47.792;12.076;2022-12-20T08:27:04;96756.19;;;0.29;100.00
15229;BME280;7717;47.792;12.076;2022-12-20T08:29:30;96748.94;;;0.17;100.00
15229;BME280;7717;47.792;12.076;2022-12-20T08:31:55;96749.66;;;0.52;100.00
15229;BME280;7717;47.792;12.076;2022-12-20T08:34:21;96747.94;;;0.70;100.00
15229;BME280;7717;47.792;12.076;2022-12-20T08:36:46;96742.53;;;0.82;100.00
15229;BME280;7717;47.792;12.076;2022-12-20T08:39:11;96747.84;;;0.88;100.00
15229;BME280;7717;47.792;12.076;2022-12-20T08:41:37;96744.59;;;0.91;100.00
15229;BME280;7717;47.792;12.076;2022-12-20T08:44:05;96729.47;;;1.12;100.00
15229;BME280;7717;47.792;12.076;2022-12-20T08:46:31;96738.53;;;1.28;100.00
15229;BME280;7717;47.792;12.076;2022-12-20T08:48:56;96732.41;;;1.42;100.00
15229;BME280;7717;47.792;12.076;2022-12-20T08:51:22;96733.19;;;1.41;100.00
15229;BME280;7717;47.792;12.076;2022-12-20T08:53:47;96732.59;;;1.70;100.00
15229;BME280;7717;47.792;12.076;2022-12-20T08:56:14;96734.38;;;1.72;100.00
15229;BME280;7717;47.792;12.076;2022-12-20T08:58:41;96739.44;;;1.72;100.00
15229;BME280;7717;47.792;12.076;2022-12-20T09:01:10;96733.91;;;1.83;100.00
15229;BME280;7717;47.792;12.076;2022-12-20T09:03:37;96723.03;;;2.06;100.00
15229;BME280;7717;47.792;12.076;2022-12-20T09:06:08;96726.63;;;2.36;100.00
15229;BME280;7717;47.792;12.076;2022-12-20T09:08:36;96724.06;;;2.58;100.00
15229;BME280;7717;47.792;12.076;2022-12-20T09:11:15;96723.03;;;2.77;100.00
15229;BME280;7717;47.792;12.076;2022-12-20T09:13:43;96729.34;;;2.90;100.00
15229;BME280;7717;47.792;12.076;2022-12-20T09:16:09;96728.09;;;2.77;100.00
15229;BME280;7717;47.792;12.076;2022-12-20T09:18:35;96719.16;;;2.63;100.00
15229;BME280;7717;47.792;12.076;2022-12-20T09:21:03;96722.38;;;2.59;100.00
15229;BME280;7717;47.792;12.076;2022-12-20T09:23:29;96730.03;;;2.60;100.00
15229;BME280;7717;47.792;12.076;2022-12-20T09:26:03;96737.28;;;2.51;100.00
15229;BME280;7717;47.792;12.076;2022-12-20T09:28:30;96728.59;;;2.68;100.00
15229;BME280;7717;47.792;12.076;2022-12-20T09:31:04;96721.72;;;2.88;100.00
15229;BME280;7717;47.792;12.076;2022-12-20T09:33:31;96717.78;;;2.97;100.00
15229;BME280;7717;47.792;12.076;2022-12-20T09:35:57;96718.28;;;3.12;100.00
15229;BME280;7717;47.792;12.076;2022-12-20T09:38:23;96707.41;;;3.15;100.00
15229;BME280;7717;47.792;12.076;2022-12-20T09:40:51;96713.84;;;3.05;100.00
15229;BME280;7717;47.792;12.076;2022-12-20T09:43:18;96705.44;;;3.32;100.00
15229;BME280;7717;47.792;12.076;2022-12-20T09:45:46;96688.22;;;3.21;100.00
15229;BME280;7717;47.792;12.076;2022-12-20T09:48:18;96687.19;;;3.42;100.00
15229;BME280;7717;47.792;12.076;2022-12-20T09:53:36;96681.31;;;4.29;100.00
15229;BME280;7717;47.792;12.076;2022-12-20T09:56:12;96676.41;;;4.66;100.00
15229;BME280;7717;47.792;12.076;2022-12-20T10:01:24;96664.75;;;5.08;100.00
15229;BME280;7717;47.792;12.076;2022-12-20T10:03:51;96667.13;;;5.01;100.00
15229;BME280;7717;47.792;12.076;2022-12-20T10:06:39;96658.94;;;5.12;100.00
15229;BME280;7717;47.792;12.076;2022-12-20T10:09:04;96657.81;;;5.00;100.00
15229;BME280;7717;47.792;12.076;2022-12-20T10:14:35;96653.41;;;4.60;100.00
15229;BME280;7717;47.792;12.076;2022-12-20T10:17:38;96651.53;;;4.21;100.00
15229;BME280;7717;47.792;12.076;2022-12-20T10:22:47;96658.38;;;3.94;100.00
15229;BME280;7717;47.792;12.076;2022-12-20T10:25:16;96640.53;;;4.52;100.00
15229;BME280;7717;47.792;12.076;2022-12-20T10:27:44;96637.75;;;4.43;100.00
15229;BME280;7717;47.792;12.076;2022-12-20T10:30:21;96631.56;;;4.65;100.00
15229;BME280;7717;47.792;12.076;2022-12-20T10:32:50;96635.16;;;4.40;100.00
15229;BME280;7717;47.792;12.076;2022-12-20T10:35:22;96626.66;;;4.38;100.00
15229;BME280;7717;47.792;12.076;2022-12-20T10:40:33;96621.63;;;5.08;100.00
15229;BME280;7717;47.792;12.076;2022-12-20T10:42:59;96609.16;;;5.17;100.00
15229;BME280;7717;47.792;12.076;2022-12-20T10:45:35;96618.28;;;4.42;100.00
15229;BME280;7717;47.792;12.076;2022-12-20T10:48:05;96626.91;;;4.48;100.00
15229;BME280;7717;47.792;12.076;2022-12-20T10:50:31;96616.06;;;5.22;100.00
15229;BME280;7717;47.792;12.076;2022-12-20T10:55:39;96604.81;;;5.11;100.00
15229;BME280;7717;47.792;12.076;2022-12-20T11:00:43;96601.13;;;5.35;100.00
15229;BME280;7717;47.792;12.076;2022-12-20T11:03:21;96595.81;;;5.26;100.00
15229;BME280;7717;47.792;12.076;2022-12-20T11:06:00;96584.78;;;5.23;100.00
15229;BME280;7717;47.792;12.076;2022-12-20T11:08:28;96589.41;;;5.41;100.00
15229;BME280;7717;47.792;12.076;2022-12-20T11:11:12;96584.66;;;5.17;100.00
15229;BME280;7717;47.792;12.076;2022-12-20T11:13:39;96576.75;;;5.43;100.00
15229;BME280;7717;47.792;12.076;2022-12-20T11:16:05;96572.03;;;5.20;100.00
15229;BME280;7717;47.792;12.076;2022-12-20T11:18:37;96568.16;;;5.36;100.00
15229;BME280;7717;47.792;12.076;2022-12-20T11:23:37;96550.94;;;5.63;100.00
15229;BME280;7717;47.792;12.076;2022-12-20T11:26:16;96558.91;;;5.40;100.00
15229;BME280;7717;47.792;12.076;2022-12-20T11:31:50;96554.50;;;5.72;100.00
15229;BME280;7717;47.792;12.076;2022-12-20T11:34:43;96542.72;;;5.76;100.00
15229;BME280;7717;47.792;12.076;2022-12-20T11:37:19;96523.59;;;6.39;100.00
15229;BME280;7717;47.792;12.076;2022-12-20T11:48:26;96511.03;;;7.02;100.00
15229;BME280;7717;47.792;12.076;2022-12-20T11:51:02;96504.94;;;6.94;100.00
15229;BME280;7717;47.792;12.076;2022-12-20T11:53:38;96490.19;;;6.71;100.00
15229;BME280;7717;47.792;12.076;2022-12-20T11:56:12;96499.88;;;6.40;100.00
15229;BME280;7717;47.792;12.076;2022-12-20T12:01:42;96499.31;;;5.22;100.00
15229;BME280;7717;47.792;12.076;2022-12-20T12:04:17;96487.97;;;5.46;100.00
15229;BME280;7717;47.792;12.076;2022-12-20T12:06:52;96492.44;;;5.17;100.00
15229;BME280;7717;47.792;12.076;2022-12-20T12:09:23;96493.75;;;4.99;100.00
15229;BME280;7717;47.792;12.076;2022-12-20T12:12:03;96488.56;;;4.95;100.00
15229;BME280;7717;47.792;12.076;2022-12-20T12:17:06;96511.16;;;4.84;100.00
15229;BME280;7717;47.792;12.076;2022-12-20T12:19:34;96496.41;;;4.32;100.00
15229;BME280;7717;47.792;12.076;2022-12-20T12:22:05;96482.94;;;4.70;100.00
15229;BME280;7717;47.792;12.076;2022-12-20T12:24:37;96483.78;;;5.07;100.00
15229;BME280;7717;47.792;12.076;2022-12-20T12:27:16;96477.50;;;4.91;100.00
15229;BME280;7717;47.792;12.076;2022-12-20T12:29:44;96477.28;;;4.80;100.00
15229;BME280;7717;47.792;12.076;2022-12-20T12:32:18;96472.97;;;4.78;100.00
15229;BME280;7717;47.792;12.076;2022-12-20T12:43:09;96463.53;;;4.71;100.00
15229;BME280;7717;47.792;12.076;2022-12-20T12:45:47;96454.63;;;4.88;100.00
15229;BME280;7717;47.792;12.076;2022-12-20T12:50:50;96453.63;;;4.81;100.00
15229;BME280;7717;47.792;12.076;2022-12-20T12:53:24;96456.88;;;4.38;100.00
15229;BME280;7717;47.792;12.076;2022-12-20T12:55:54;96459.00;;;4.57;100.00
15229;BME280;7717;47.792;12.076;2022-12-20T13:00:55;96456.66;;;4.66;100.00
15229;BME280;7717;47.792;12.076;2022-12-20T13:11:31;96463.91;;;4.14;100.00
15229;BME280;7717;47.792;12.076;2022-12-20T13:16:41;96464.66;;;3.78;100.00
15229;BME280;7717;47.792;12.076;2022-12-20T13:19:35;96454.16;;;3.96;100.00
15229;BME280;7717;47.792;12.076;2022-12-20T13:24:51;96439.56;;;4.21;100.00
15229;BME280;7717;47.792;12.076;2022-12-20T13:27:24;96447.44;;;4.70;100.00
15229;BME280;7717;47.792;12.076;2022-12-20T13:40:55;96371.25;;;9.68;100.00
15229;BME280;7717;47.792;12.076;2022-12-20T13:45:49;96441.88;;;6.71;100.00
15229;BME280;7717;47.792;12.076;2022-12-20T13:48:18;96457.25;;;5.78;100.00
15229;BME280;7717;47.792;12.076;2022-12-20T13:50:50;96451.53;;;5.43;100.00
15229;BME280;7717;47.792;12.076;2022-12-20T13:53:25;96433.66;;;6.91;100.00
15229;BME280;7717;47.792;12.076;2022-12-20T13:55:52;96426.47;;;7.25;100.00
15229;BME280;7717;47.792;12.076;2022-12-20T13:58:24;96434.19;;;7.31;100.00
15229;BME280;7717;47.792;12.076;2022-12-20T14:00:50;96433.28;;;6.63;100.00
15229;BME280;7717;47.792;12.076;2022-12-20T14:03:20;96436.00;;;6.20;100.00
15229;BME280;7717;47.792;12.076;2022-12-20T14:05:47;96428.59;;;6.34;100.00
15229;BME280;7717;47.792;12.076;2022-12-20T14:08:15;96423.84;;;6.56;100.00
15229;BME280;7717;47.792;12.076;2022-12-20T14:10:42;96438.16;;;5.97;100.00
15229;BME280;7717;47.792;12.076;2022-12-20T14:13:25;96398.56;;;6.10;100.00
15229;BME280;7717;47.792;12.076;2022-12-20T14:15:52;96419.91;;;6.20;100.00
15229;BME280;7717;47.792;12.076;2022-12-20T14:18:23;96416.00;;;7.03;100.00
15229;BME280;7717;47.792;12.076;2022-12-20T14:20:59;96416.38;;;6.68;100.00
15229;BME280;7717;47.792;12.076;2022-12-20T14:23:35;96422.59;;;6.89;100.00
15229;BME280;7717;47.792;12.076;2022-12-20T14:26:02;96409.38;;;5.98;100.00
15229;BME280;7717;47.792;12.076;2022-12-20T14:28:39;96413.53;;;5.06;100.00
15229;BME280;7717;47.792;12.076;2022-12-20T14:31:19;96430.44;;;5.04;100.00
15229;BME280;7717;47.792;12.076;2022-12-20T14:33:46;96426.50;;;4.79;100.00
15229;BME280;7717;47.792;12.076;2022-12-20T14:38:41;96406.88;;;4.32;100.00
15229;BME280;7717;47.792;12.076;2022-12-20T14:43:55;96383.00;;;3.87;100.00
15229;BME280;7717;47.792;12.076;2022-12-20T14:46:21;96393.88;;;3.82;100.00